X  Sluiten METAR luchtvaart weer gegevens      EHGG Eelde Airport
Temperatuur
17°C Temperatuur
15°C Dauwpunt
88% Vochtigheid



Wind
19 KM/U
12 MPH
5 M/S
10 KTS



200°
ZZW
Huidig weer

Wat bewolking Wat bewolking
Luchtdruk 1006.92 (hPa) - 29.73 (inHg)
Zicht 6.2 (mijl) - 10 (km)
Vliegveld
Vliegveld code EHGG

Locatie : Eelde Airport
Afstand: 47 (km)

Metar:
EHGG 281625Z AUTO 20010KT 170V230 9999 FEW015CB 17/15 Q1007 REDZ TEMPO 22018G28KT 6000 SHRA FEW020CB

Tijd: 28-07-2021 18:25 CEST